createdAt,value
2022-09-30T00:00:04.063Z,48.43
2022-09-30T00:00:30.368Z,48.83
2022-09-30T00:00:51.937Z,48.56
2022-09-30T00:01:13.584Z,48.44
2022-09-30T00:01:37.528Z,48.81
2022-09-30T00:01:59.178Z,48.67
2022-09-30T00:02:20.851Z,48.74
2022-09-30T00:02:42.441Z,48.79
2022-09-30T00:03:05.274Z,48.74
2022-09-30T00:03:28.914Z,48.80
2022-09-30T00:03:50.512Z,48.73
2022-09-30T00:04:15.413Z,48.85
2022-09-30T00:04:39.540Z,48.63
2022-09-30T00:05:01.101Z,48.66
2022-09-30T00:05:22.705Z,48.16
2022-09-30T00:05:44.276Z,48.32
2022-09-30T00:06:09.128Z,48.20
2022-09-30T00:06:31.856Z,48.21
2022-09-30T00:06:54.327Z,48.28
2022-09-30T00:07:16.022Z,48.28
2022-09-30T00:07:38.548Z,48.25
2022-09-30T00:08:00.567Z,48.34
2022-09-30T00:08:22.226Z,48.27
2022-09-30T00:08:43.919Z,48.22
2022-09-30T00:09:05.907Z,48.25
2022-09-30T00:09:28.495Z,47.92
2022-09-30T00:09:50.270Z,48.02
2022-09-30T00:10:13.589Z,48.05
2022-09-30T00:10:35.398Z,48.19
2022-09-30T00:11:01.488Z,48.12
2022-09-30T00:11:27.172Z,48.61
2022-09-30T00:11:48.822Z,48.54
2022-09-30T00:12:10.603Z,48.69
2022-09-30T00:12:32.192Z,48.61
2022-09-30T00:12:54.873Z,48.82
2022-09-30T00:13:17.401Z,48.76
2022-09-30T00:13:40.402Z,48.81
2022-09-30T00:14:02.842Z,48.82
2022-09-30T00:14:25.422Z,48.52
2022-09-30T00:14:47.024Z,48.73
2022-09-30T00:15:09.425Z,48.54
2022-09-30T00:15:31.084Z,48.32
2022-09-30T00:15:52.722Z,48.40
2022-09-30T00:16:16.449Z,48.64
2022-09-30T00:16:38.175Z,48.45
2022-09-30T00:17:00.022Z,48.72
2022-09-30T00:17:21.588Z,48.88
2022-09-30T00:17:43.952Z,48.95
2022-09-30T00:18:06.533Z,48.64
2022-09-30T00:18:28.701Z,48.60
2022-09-30T00:18:53.485Z,48.83
2022-09-30T00:19:15.450Z,49.00
2022-09-30T00:19:39.628Z,49.09
2022-09-30T00:20:01.804Z,48.81
2022-09-30T00:20:23.369Z,48.99
2022-09-30T00:20:44.982Z,48.98
2022-09-30T00:21:08.496Z,48.94
2022-09-30T00:21:30.464Z,49.22
2022-09-30T00:22:21.953Z,48.88
2022-09-30T00:22:44.854Z,49.13
2022-09-30T00:23:06.391Z,49.17
2022-09-30T00:23:28.565Z,48.78
2022-09-30T00:23:50.173Z,49.16
2022-09-30T00:24:12.866Z,48.87
2022-09-30T00:24:34.437Z,48.92
2022-09-30T00:24:56.001Z,48.99
2022-09-30T00:25:17.556Z,48.65
2022-09-30T00:25:40.237Z,48.70
2022-09-30T00:26:05.069Z,48.90
2022-09-30T00:26:26.932Z,48.83
2022-09-30T00:26:49.672Z,48.69
2022-09-30T00:27:12.207Z,48.76
2022-09-30T00:27:34.059Z,48.52
2022-09-30T00:27:55.649Z,48.78
2022-09-30T00:28:17.502Z,48.84
2022-09-30T00:28:40.602Z,48.93
2022-09-30T00:29:03.749Z,48.94
2022-09-30T00:29:25.563Z,48.89
2022-09-30T00:29:47.245Z,49.18
2022-09-30T00:30:09.798Z,49.11
2022-09-30T00:30:32.381Z,49.30
2022-09-30T00:30:54.047Z,49.12
2022-09-30T00:31:17.131Z,49.35
2022-09-30T00:31:39.883Z,49.11
2022-09-30T00:32:02.018Z,49.07
2022-09-30T00:32:23.640Z,48.98
2022-09-30T00:32:45.236Z,48.96
2022-09-30T00:33:07.136Z,49.24
2022-09-30T00:33:30.076Z,49.18
2022-09-30T00:34:06.799Z,48.65
2022-09-30T00:34:28.569Z,48.65
2022-09-30T00:34:52.508Z,48.71
2022-09-30T00:35:14.254Z,48.56
2022-09-30T00:35:36.584Z,48.85
2022-09-30T00:35:58.150Z,48.67
2022-09-30T00:36:20.694Z,48.92
2022-09-30T00:36:45.268Z,48.46
2022-09-30T00:37:08.731Z,48.58
2022-09-30T00:37:30.346Z,48.82
2022-09-30T00:37:52.071Z,48.57
2022-09-30T00:38:13.656Z,48.86
2022-09-30T00:38:35.263Z,48.57
2022-09-30T00:38:57.794Z,48.69
2022-09-30T00:39:21.863Z,48.69
2022-09-30T00:39:43.532Z,48.89
2022-09-30T00:40:06.845Z,48.55
2022-09-30T00:40:30.093Z,48.67
2022-09-30T00:40:51.963Z,48.77
2022-09-30T00:41:13.584Z,48.72
2022-09-30T00:41:37.529Z,48.97
2022-09-30T00:42:01.725Z,49.13
2022-09-30T00:42:23.321Z,48.97
2022-09-30T00:42:46.193Z,48.99
2022-09-30T00:43:15.013Z,48.97
2022-09-30T00:43:42.188Z,49.17
2022-09-30T00:44:37.142Z,49.39
2022-09-30T00:45:06.546Z,49.21
2022-09-30T00:45:32.588Z,49.42
2022-09-30T00:45:57.017Z,49.31
2022-09-30T00:46:24.190Z,48.85
2022-09-30T00:46:45.845Z,48.83
2022-09-30T00:47:34.402Z,49.06
2022-09-30T00:48:05.942Z,49.22
2022-09-30T00:48:33.705Z,49.12
2022-09-30T00:48:58.993Z,49.30
2022-09-30T00:49:23.761Z,49.24
2022-09-30T00:49:47.020Z,49.33
2022-09-30T00:50:27.968Z,49.33
2022-09-30T00:50:55.420Z,49.48
2022-09-30T00:51:18.762Z,49.37
2022-09-30T00:51:45.493Z,49.17
2022-09-30T00:52:07.072Z,49.28
2022-09-30T00:52:29.896Z,49.46
2022-09-30T00:52:56.637Z,49.47
2022-09-30T00:53:22.136Z,49.38
2022-09-30T00:53:50.464Z,49.17
2022-09-30T00:54:16.716Z,49.31
2022-09-30T00:54:39.263Z,48.82
2022-09-30T00:55:04.672Z,48.81
2022-09-30T00:55:34.254Z,48.84
2022-09-30T00:56:01.291Z,48.63
2022-09-30T00:56:25.485Z,48.56
2022-09-30T00:56:52.360Z,48.69
2022-09-30T00:57:14.071Z,49.01
2022-09-30T00:57:37.549Z,49.10
2022-09-30T00:58:02.740Z,49.15
2022-09-30T00:58:30.101Z,48.42
2022-09-30T00:58:58.150Z,48.36
2022-09-30T00:59:26.014Z,48.53
2022-09-30T00:59:50.161Z,48.68
2022-09-30T01:00:12.178Z,48.41
2022-09-30T01:00:34.376Z,48.52
2022-09-30T01:01:00.140Z,48.78
2022-09-30T01:01:22.905Z,48.93
2022-09-30T01:01:44.689Z,48.71
2022-09-30T01:02:06.569Z,48.41
2022-09-30T01:02:28.291Z,48.45
2022-09-30T01:02:51.373Z,48.17
2022-09-30T01:03:13.131Z,47.90
2022-09-30T01:03:38.358Z,48.09
2022-09-30T01:04:04.262Z,48.18
2022-09-30T01:04:29.041Z,48.22
2022-09-30T01:04:50.736Z,48.62
2022-09-30T01:05:13.420Z,48.50
2022-09-30T01:05:36.378Z,48.35
2022-09-30T01:05:58.988Z,48.57
2022-09-30T01:06:22.505Z,48.41
2022-09-30T01:06:44.396Z,48.06
2022-09-30T01:07:08.310Z,47.94
2022-09-30T01:07:31.144Z,48.16
2022-09-30T01:07:56.663Z,48.32
2022-09-30T01:08:20.823Z,48.37
2022-09-30T01:08:44.765Z,48.47
2022-09-30T01:09:06.655Z,48.38
2022-09-30T01:09:29.104Z,48.12
2022-09-30T01:09:51.733Z,48.10
2022-09-30T01:10:13.299Z,48.24
2022-09-30T01:10:36.090Z,48.12
2022-09-30T01:10:57.620Z,47.86
2022-09-30T01:11:22.236Z,47.83
2022-09-30T01:11:44.118Z,48.05
2022-09-30T01:12:10.533Z,47.92
2022-09-30T01:12:32.432Z,48.30
2022-09-30T01:12:54.569Z,48.46
2022-09-30T01:13:18.709Z,48.21
2022-09-30T01:13:42.938Z,48.03
2022-09-30T01:14:11.055Z,47.77
2022-09-30T01:14:33.205Z,47.97
2022-09-30T01:14:58.188Z,48.14
2022-09-30T01:15:24.680Z,48.01
2022-09-30T01:16:07.043Z,47.58
2022-09-30T01:16:43.120Z,47.63
2022-09-30T01:17:14.977Z,47.68
2022-09-30T01:17:46.944Z,47.78
2022-09-30T01:18:17.276Z,48.11
2022-09-30T01:18:53.710Z,48.05
2022-09-30T01:19:28.367Z,47.78
2022-09-30T01:20:17.206Z,47.66
2022-09-30T01:21:08.497Z,47.50
2022-09-30T01:22:00.891Z,48.01
2022-09-30T01:22:33.643Z,47.91
2022-09-30T01:23:15.601Z,47.67
2022-09-30T01:24:17.752Z,47.98
2022-09-30T01:25:13.536Z,47.97
2022-09-30T01:26:06.989Z,48.22
2022-09-30T01:26:46.642Z,48.11
2022-09-30T01:27:18.546Z,48.06
2022-09-30T01:27:56.722Z,47.85
2022-09-30T01:28:50.908Z,48.26
2022-09-30T01:29:43.867Z,48.15
2022-09-30T01:30:18.764Z,48.49
2022-09-30T01:30:55.647Z,47.83
2022-09-30T01:31:28.216Z,48.13
2022-09-30T01:31:56.916Z,47.96
2022-09-30T01:32:29.614Z,47.82
2022-09-30T01:33:32.569Z,47.61
2022-09-30T01:34:01.418Z,47.59
2022-09-30T01:34:37.421Z,47.78
2022-09-30T01:35:08.249Z,48.13
2022-09-30T01:35:42.068Z,48.14
2022-09-30T01:36:20.727Z,48.20
2022-09-30T01:36:59.276Z,47.81
2022-09-30T01:37:26.417Z,47.67
2022-09-30T01:37:59.826Z,47.34
2022-09-30T01:38:29.282Z,47.50
2022-09-30T01:39:01.744Z,47.66
2022-09-30T01:39:31.009Z,47.47
2022-09-30T01:40:03.632Z,47.70
2022-09-30T01:40:34.292Z,47.54
2022-09-30T01:41:04.001Z,47.49
2022-09-30T01:41:28.121Z,47.55
2022-09-30T01:41:56.051Z,47.36
2022-09-30T01:42:26.012Z,47.33
2022-09-30T01:42:55.981Z,47.88
2022-09-30T01:43:30.284Z,47.86
2022-09-30T01:44:03.911Z,48.27
2022-09-30T01:44:35.168Z,48.36
2022-09-30T01:45:04.251Z,48.36
2022-09-30T01:45:35.042Z,48.61
2022-09-30T01:46:03.045Z,48.37
2022-09-30T01:46:33.698Z,48.45
2022-09-30T01:47:02.366Z,48.45
2022-09-30T01:47:26.429Z,48.14
2022-09-30T01:47:51.447Z,48.11
2022-09-30T01:48:20.573Z,48.13
2022-09-30T01:48:50.492Z,48.22
2022-09-30T01:49:21.302Z,48.17
2022-09-30T01:49:47.081Z,48.47
2022-09-30T01:50:13.268Z,48.57
2022-09-30T01:50:43.417Z,48.08
2022-09-30T01:51:10.697Z,48.41
2022-09-30T01:51:39.999Z,48.21
2022-09-30T01:52:06.725Z,48.08
2022-09-30T01:52:36.549Z,48.01
2022-09-30T01:53:10.955Z,48.17
2022-09-30T01:53:40.325Z,47.86
2022-09-30T01:54:08.685Z,47.99
2022-09-30T01:54:40.175Z,47.70
2022-09-30T01:55:07.939Z,47.88
2022-09-30T01:55:36.018Z,47.45
2022-09-30T01:56:01.904Z,47.78
2022-09-30T01:56:30.999Z,47.70
2022-09-30T01:56:57.085Z,47.89
2022-09-30T01:57:22.801Z,47.82
2022-09-30T01:57:48.394Z,48.23
2022-09-30T01:58:17.542Z,47.89
2022-09-30T01:58:44.976Z,47.74
2022-09-30T01:59:11.769Z,47.73
2022-09-30T01:59:38.702Z,47.90
2022-09-30T02:00:07.175Z,47.73
2022-09-30T02:00:37.312Z,47.50
2022-09-30T02:01:06.110Z,47.58
2022-09-30T02:01:31.650Z,47.46
2022-09-30T02:01:58.435Z,47.18
2022-09-30T02:02:25.303Z,47.22
2022-09-30T02:02:52.014Z,47.38
2022-09-30T02:03:17.766Z,47.33
2022-09-30T02:03:45.795Z,47.33
2022-09-30T02:04:11.370Z,47.32
2022-09-30T02:04:38.272Z,47.30
2022-09-30T02:05:03.305Z,47.32
2022-09-30T02:05:33.299Z,47.41
2022-09-30T02:06:02.763Z,47.64
2022-09-30T02:06:29.141Z,47.69
2022-09-30T02:06:56.144Z,47.96
2022-09-30T02:07:25.045Z,48.16
2022-09-30T02:07:51.982Z,47.97
2022-09-30T02:08:23.880Z,48.05
2022-09-30T02:08:50.267Z,47.99
2022-09-30T02:09:14.829Z,48.28
2022-09-30T02:09:41.155Z,47.77
2022-09-30T02:10:09.404Z,47.94
2022-09-30T02:10:34.686Z,47.62
2022-09-30T02:11:00.936Z,47.82
2022-09-30T02:11:26.299Z,47.44
2022-09-30T02:11:49.267Z,47.41
2022-09-30T02:12:15.997Z,47.37
2022-09-30T02:12:46.538Z,47.64
2022-09-30T02:13:15.306Z,47.57
2022-09-30T02:13:42.349Z,47.20
2022-09-30T02:14:11.275Z,47.22
2022-09-30T02:14:41.986Z,47.43
2022-09-30T02:15:08.235Z,47.32
2022-09-30T02:15:40.251Z,47.29
2022-09-30T02:16:13.034Z,47.62
2022-09-30T02:16:40.660Z,47.43
2022-09-30T02:17:06.024Z,47.63
2022-09-30T02:17:33.830Z,47.90
2022-09-30T02:17:59.946Z,47.79
2022-09-30T02:18:30.624Z,47.55
2022-09-30T02:18:55.636Z,47.70
2022-09-30T02:19:20.496Z,47.61
2022-09-30T02:19:45.542Z,47.76
2022-09-30T02:20:13.773Z,47.56
2022-09-30T02:20:40.678Z,47.68
2022-09-30T02:21:04.393Z,47.84
2022-09-30T02:21:31.251Z,47.77
2022-09-30T02:21:57.749Z,47.62
2022-09-30T02:22:24.446Z,47.75
2022-09-30T02:22:50.597Z,47.87
2022-09-30T02:23:17.316Z,47.70
2022-09-30T02:23:45.028Z,47.69
2022-09-30T02:24:11.315Z,47.65
2022-09-30T02:24:36.951Z,47.69
2022-09-30T02:25:04.520Z,47.99
2022-09-30T02:25:32.116Z,48.09
2022-09-30T02:26:04.108Z,48.06
2022-09-30T02:26:30.397Z,48.07
2022-09-30T02:26:57.084Z,48.30
2022-09-30T02:27:24.229Z,47.85
2022-09-30T02:27:50.750Z,47.45
2022-09-30T02:28:18.750Z,47.57
2022-09-30T02:28:45.307Z,47.72
2022-09-30T02:29:13.309Z,47.47
2022-09-30T02:29:39.587Z,47.48
2022-09-30T02:30:04.047Z,47.55
2022-09-30T02:30:26.186Z,47.54
2022-09-30T02:30:54.360Z,47.43
2022-09-30T02:31:22.281Z,47.55
2022-09-30T02:31:48.244Z,47.67
2022-09-30T02:32:18.421Z,47.73
2022-09-30T02:32:47.373Z,48.45
2022-09-30T02:33:14.003Z,48.08
2022-09-30T02:33:40.550Z,48.12
2022-09-30T02:34:09.045Z,48.31
2022-09-30T02:34:36.080Z,48.43
2022-09-30T02:35:03.062Z,47.93
2022-09-30T02:35:30.765Z,48.19
2022-09-30T02:35:59.706Z,48.26
2022-09-30T02:36:27.524Z,48.08
2022-09-30T02:36:55.017Z,47.96
2022-09-30T02:37:21.513Z,48.03
2022-09-30T02:37:51.342Z,48.16
2022-09-30T02:38:18.408Z,47.77
2022-09-30T02:38:44.908Z,47.56
2022-09-30T02:39:11.714Z,47.63
2022-09-30T02:39:40.703Z,47.65
2022-09-30T02:40:10.271Z,47.78
2022-09-30T02:40:37.076Z,47.53
2022-09-30T02:41:06.772Z,47.78
2022-09-30T02:41:33.600Z,47.75
2022-09-30T02:42:04.758Z,47.36
2022-09-30T02:42:30.079Z,47.63
2022-09-30T02:42:51.977Z,47.61
2022-09-30T02:43:15.415Z,47.63
2022-09-30T02:43:40.581Z,47.71
2022-09-30T02:44:05.505Z,47.83
2022-09-30T02:44:27.308Z,48.16
2022-09-30T02:44:51.037Z,48.03
2022-09-30T02:45:16.381Z,48.16
2022-09-30T02:45:47.277Z,48.19
2022-09-30T02:46:18.804Z,48.46
2022-09-30T02:46:50.685Z,48.38
2022-09-30T02:47:18.918Z,48.19
2022-09-30T02:47:54.467Z,47.83
2022-09-30T02:48:27.540Z,47.74
2022-09-30T02:48:58.765Z,47.60
2022-09-30T02:49:28.271Z,47.40
2022-09-30T02:49:56.332Z,47.54
2022-09-30T02:50:26.907Z,47.74
2022-09-30T02:50:53.401Z,48.05
2022-09-30T02:51:22.138Z,47.94
2022-09-30T02:51:56.696Z,48.09
2022-09-30T02:52:27.673Z,47.89
2022-09-30T02:53:01.860Z,48.03
2022-09-30T02:53:27.670Z,48.12
2022-09-30T02:53:57.490Z,47.84
2022-09-30T02:54:28.936Z,48.05
2022-09-30T02:55:02.498Z,47.73
2022-09-30T02:55:31.374Z,47.80
2022-09-30T02:56:09.601Z,47.90
2022-09-30T02:56:46.004Z,48.22
2022-09-30T02:57:19.363Z,48.28
2022-09-30T02:57:53.532Z,48.26
2022-09-30T02:58:18.523Z,48.38
2022-09-30T02:58:43.293Z,48.11
2022-09-30T02:59:05.221Z,48.10
2022-09-30T02:59:28.742Z,48.21
2022-09-30T02:59:52.296Z,48.29
2022-09-30T03:00:14.569Z,48.33
2022-09-30T03:00:36.390Z,48.03
2022-09-30T03:01:00.129Z,47.87
2022-09-30T03:01:22.358Z,47.85
2022-09-30T03:01:45.731Z,47.81
2022-09-30T03:02:07.447Z,47.92
2022-09-30T03:02:29.222Z,47.60
2022-09-30T03:02:57.338Z,47.54
2022-09-30T03:03:22.777Z,47.81
2022-09-30T03:03:48.541Z,48.09
2022-09-30T03:04:15.878Z,48.02
2022-09-30T03:04:41.358Z,47.91
2022-09-30T03:05:04.097Z,47.64
2022-09-30T03:05:27.024Z,47.79
2022-09-30T03:05:51.226Z,47.76
2022-09-30T03:06:13.412Z,47.70
2022-09-30T03:06:35.375Z,47.75
2022-09-30T03:06:57.366Z,47.86
2022-09-30T03:07:20.405Z,47.94
2022-09-30T03:07:42.992Z,48.11
2022-09-30T03:08:04.823Z,48.13
2022-09-30T03:08:26.572Z,48.39
2022-09-30T03:08:48.873Z,48.42
2022-09-30T03:09:11.562Z,48.47
2022-09-30T03:09:34.618Z,48.26
2022-09-30T03:09:57.970Z,48.39
2022-09-30T03:10:19.589Z,48.37
2022-09-30T03:10:42.681Z,48.36
2022-09-30T03:11:05.812Z,48.45
2022-09-30T03:11:28.882Z,48.57
2022-09-30T03:11:53.900Z,48.56
2022-09-30T03:12:34.306Z,48.60
2022-09-30T03:13:10.425Z,48.52
2022-09-30T03:14:09.085Z,48.30
2022-09-30T03:14:44.753Z,48.25
2022-09-30T03:15:25.687Z,48.56
2022-09-30T03:16:02.896Z,48.27
2022-09-30T03:16:37.220Z,48.54
2022-09-30T03:17:30.132Z,48.63
2022-09-30T03:18:18.237Z,48.66
2022-09-30T03:19:00.018Z,48.64
2022-09-30T03:19:38.588Z,48.80
2022-09-30T03:20:21.563Z,48.73
2022-09-30T03:20:57.432Z,48.64
2022-09-30T03:21:36.457Z,48.64
2022-09-30T03:22:28.938Z,48.73
2022-09-30T03:23:10.696Z,48.62
2022-09-30T03:23:50.852Z,48.60
2022-09-30T03:24:43.105Z,48.96
2022-09-30T03:25:19.114Z,48.93
2022-09-30T03:25:50.220Z,48.79
2022-09-30T03:26:25.957Z,48.95
2022-09-30T03:26:56.524Z,48.97
2022-09-30T03:27:32.403Z,49.13
2022-09-30T03:28:09.403Z,48.83
2022-09-30T03:28:36.307Z,48.98
2022-09-30T03:29:09.517Z,49.19
2022-09-30T03:29:40.793Z,49.40
2022-09-30T03:30:06.152Z,49.36
2022-09-30T03:30:36.056Z,49.32
2022-09-30T03:31:05.895Z,49.14
2022-09-30T03:31:37.662Z,49.31
2022-09-30T03:32:12.601Z,49.25
2022-09-30T03:32:51.957Z,49.06
2022-09-30T03:33:23.197Z,49.03
2022-09-30T03:33:50.107Z,49.03
2022-09-30T03:34:21.450Z,49.00
2022-09-30T03:35:00.034Z,49.23
2022-09-30T03:35:30.889Z,49.11
2022-09-30T03:36:00.362Z,49.17
2022-09-30T03:36:29.126Z,49.30
2022-09-30T03:37:04.418Z,49.22
2022-09-30T03:37:31.362Z,49.16
2022-09-30T03:38:05.041Z,49.08
2022-09-30T03:38:36.888Z,49.23
2022-09-30T03:39:04.105Z,49.07
2022-09-30T03:39:29.353Z,49.18
2022-09-30T03:39:58.753Z,49.38
2022-09-30T03:40:28.007Z,49.16
2022-09-30T03:40:57.825Z,49.01
2022-09-30T03:41:30.930Z,49.03
2022-09-30T03:41:58.347Z,49.20
2022-09-30T03:42:27.018Z,49.07
2022-09-30T03:42:56.761Z,49.11
2022-09-30T03:43:27.184Z,49.19
2022-09-30T03:43:52.475Z,49.12
2022-09-30T03:44:18.959Z,49.10
2022-09-30T03:44:46.154Z,49.16
2022-09-30T03:45:12.298Z,49.27
2022-09-30T03:45:37.600Z,49.36
2022-09-30T03:46:05.252Z,49.39
2022-09-30T03:46:34.517Z,49.69
2022-09-30T03:47:01.075Z,49.55
2022-09-30T03:47:27.139Z,49.47
2022-09-30T03:47:55.428Z,49.33
2022-09-30T03:48:19.339Z,49.45
2022-09-30T03:48:42.427Z,49.45
2022-09-30T03:49:09.582Z,49.52
2022-09-30T03:49:35.912Z,49.26
2022-09-30T03:50:01.119Z,49.19
2022-09-30T03:50:25.983Z,48.83
2022-09-30T03:50:49.246Z,48.84
2022-09-30T03:51:11.008Z,48.75
2022-09-30T03:51:37.178Z,48.82
2022-09-30T03:52:04.942Z,48.44
2022-09-30T03:52:30.960Z,48.29
2022-09-30T03:52:52.866Z,48.37
2022-09-30T03:53:14.580Z,48.29
2022-09-30T03:53:39.185Z,48.58
2022-09-30T03:54:01.791Z,48.59
2022-09-30T03:54:23.938Z,48.79
2022-09-30T03:54:49.034Z,48.50
2022-09-30T03:55:11.635Z,48.38
2022-09-30T03:55:34.688Z,48.41
2022-09-30T03:55:56.602Z,48.24
2022-09-30T03:56:25.089Z,48.31
2022-09-30T03:56:48.439Z,48.45
2022-09-30T03:57:09.994Z,48.58
2022-09-30T03:57:31.615Z,48.57
2022-09-30T03:57:54.439Z,48.34
2022-09-30T03:58:16.873Z,48.27
2022-09-30T03:58:43.903Z,48.05
2022-09-30T03:59:05.551Z,48.32
2022-09-30T03:59:28.441Z,48.32
2022-09-30T03:59:50.436Z,48.61
2022-09-30T04:00:14.157Z,48.54
2022-09-30T04:00:37.636Z,48.89
2022-09-30T04:00:59.369Z,48.92
2022-09-30T04:01:21.499Z,48.82
2022-09-30T04:01:43.210Z,48.71
2022-09-30T04:02:07.024Z,48.73
2022-09-30T04:02:29.317Z,48.87
2022-09-30T04:02:57.107Z,49.08
2022-09-30T04:03:21.753Z,49.16
2022-09-30T04:03:45.160Z,49.21
2022-09-30T04:04:06.773Z,49.08
2022-09-30T04:04:28.386Z,48.81
2022-09-30T04:04:49.952Z,48.49
2022-09-30T04:05:12.968Z,48.28
2022-09-30T04:05:34.597Z,48.37
2022-09-30T04:05:56.169Z,48.35
2022-09-30T04:06:18.951Z,48.41
2022-09-30T04:06:40.603Z,48.32
2022-09-30T04:07:03.554Z,48.41
2022-09-30T04:07:25.447Z,48.39
2022-09-30T04:07:47.194Z,48.61
2022-09-30T04:08:09.156Z,48.54
2022-09-30T04:08:33.840Z,48.60
2022-09-30T04:08:55.609Z,48.50
2022-09-30T04:09:17.266Z,48.60
2022-09-30T04:09:39.517Z,48.39
2022-09-30T04:10:02.299Z,48.24
2022-09-30T04:10:24.104Z,48.42
2022-09-30T04:10:46.017Z,48.11
2022-09-30T04:11:07.642Z,48.23
2022-09-30T04:11:30.172Z,48.22
2022-09-30T04:11:52.052Z,48.14
2022-09-30T04:12:13.634Z,48.17
2022-09-30T04:12:35.324Z,48.26
2022-09-30T04:12:58.443Z,48.18
2022-09-30T04:13:20.028Z,48.31
2022-09-30T04:13:41.698Z,48.44
2022-09-30T04:14:03.653Z,48.20
2022-09-30T04:14:26.451Z,48.22
2022-09-30T04:14:48.280Z,48.16
2022-09-30T04:15:11.012Z,48.43
2022-09-30T04:15:32.618Z,48.40
2022-09-30T04:15:55.652Z,48.33
2022-09-30T04:16:17.406Z,48.40
2022-09-30T04:16:39.056Z,48.63
2022-09-30T04:17:00.716Z,48.70
2022-09-30T04:17:23.293Z,48.63
2022-09-30T04:17:44.847Z,48.37
2022-09-30T04:18:08.147Z,47.88
2022-09-30T04:18:31.242Z,48.16
2022-09-30T04:18:54.012Z,48.29
2022-09-30T04:19:15.628Z,48.33
2022-09-30T04:19:40.104Z,48.49
2022-09-30T04:20:01.803Z,48.18
2022-09-30T04:20:24.347Z,48.47
2022-09-30T04:20:45.927Z,48.43
2022-09-30T04:21:09.036Z,47.91
2022-09-30T04:21:31.614Z,47.92
2022-09-30T04:21:53.942Z,47.99
2022-09-30T04:22:15.845Z,48.04
2022-09-30T04:22:37.539Z,47.74
2022-09-30T04:23:00.805Z,48.11
2022-09-30T04:23:22.391Z,48.30
2022-09-30T04:23:44.049Z,48.40
2022-09-30T04:24:05.979Z,48.29
2022-09-30T04:24:28.497Z,48.07
2022-09-30T04:24:50.138Z,47.92
2022-09-30T04:25:12.171Z,47.83
2022-09-30T04:25:33.700Z,48.10
2022-09-30T04:25:55.609Z,48.29
2022-09-30T04:26:20.483Z,48.21
2022-09-30T04:26:42.104Z,48.00
2022-09-30T04:27:04.179Z,48.17
2022-09-30T04:27:26.236Z,48.19
2022-09-30T04:27:48.772Z,47.92
2022-09-30T04:28:10.372Z,48.11
2022-09-30T04:28:32.398Z,48.17
2022-09-30T04:28:54.889Z,48.17
2022-09-30T04:29:17.927Z,47.90
2022-09-30T04:29:39.563Z,48.16
2022-09-30T04:30:02.483Z,48.01
2022-09-30T04:30:27.205Z,48.15
2022-09-30T04:30:51.828Z,48.13
2022-09-30T04:31:14.752Z,48.08
2022-09-30T04:31:36.582Z,48.12
2022-09-30T04:31:58.369Z,48.37
2022-09-30T04:32:22.903Z,48.13
2022-09-30T04:32:45.712Z,48.01
2022-09-30T04:33:08.838Z,47.88
2022-09-30T04:33:31.199Z,47.95
2022-09-30T04:33:53.795Z,47.96
2022-09-30T04:34:15.439Z,47.93
2022-09-30T04:34:37.527Z,47.94
2022-09-30T04:34:59.085Z,47.84
2022-09-30T04:35:20.763Z,47.80
2022-09-30T04:35:43.311Z,48.08
2022-09-30T04:36:05.975Z,47.94
2022-09-30T04:36:27.634Z,47.83
2022-09-30T04:36:49.245Z,47.80
2022-09-30T04:37:12.078Z,48.04
2022-09-30T04:37:33.733Z,48.14
2022-09-30T04:37:55.312Z,48.36
2022-09-30T04:38:17.018Z,48.33
2022-09-30T04:38:40.748Z,48.35
2022-09-30T04:39:04.207Z,48.26
2022-09-30T04:39:25.780Z,48.28
2022-09-30T04:39:49.059Z,48.16
2022-09-30T04:40:12.433Z,48.13
2022-09-30T04:40:36.450Z,48.00
2022-09-30T04:40:58.593Z,48.04
2022-09-30T04:41:22.857Z,47.90
2022-09-30T04:41:45.411Z,47.84
2022-09-30T04:42:07.048Z,47.70
2022-09-30T04:42:28.751Z,47.84
2022-09-30T04:42:50.325Z,47.83
2022-09-30T04:43:15.017Z,47.80
2022-09-30T04:43:36.876Z,47.58
2022-09-30T04:43:58.421Z,47.62
2022-09-30T04:44:21.623Z,47.55
2022-09-30T04:44:43.220Z,47.61
2022-09-30T04:45:05.555Z,47.66
2022-09-30T04:45:27.248Z,47.75
2022-09-30T04:45:51.348Z,47.61
2022-09-30T04:46:14.778Z,47.64
2022-09-30T04:46:40.680Z,47.85
2022-09-30T04:47:03.241Z,47.93
2022-09-30T04:47:25.165Z,47.96
2022-09-30T04:47:47.108Z,48.06
2022-09-30T04:48:10.418Z,47.89
2022-09-30T04:48:33.236Z,47.92
2022-09-30T04:48:55.033Z,48.07
2022-09-30T04:49:16.622Z,48.21
2022-09-30T04:49:39.180Z,48.28
2022-09-30T04:50:00.822Z,48.41
2022-09-30T04:50:24.597Z,48.50
2022-09-30T04:50:49.247Z,48.53
2022-09-30T04:51:11.888Z,48.49
2022-09-30T04:51:35.015Z,48.50
2022-09-30T04:51:56.623Z,48.48
2022-09-30T04:52:18.192Z,48.49
2022-09-30T04:52:43.368Z,48.43
2022-09-30T04:53:05.269Z,48.42
2022-09-30T04:53:27.303Z,48.45
2022-09-30T04:53:49.338Z,48.65
2022-09-30T04:54:11.896Z,48.51
2022-09-30T04:54:34.952Z,48.70
2022-09-30T04:54:58.696Z,48.78
2022-09-30T04:55:20.709Z,48.76
2022-09-30T04:55:43.922Z,48.68
2022-09-30T04:56:06.358Z,48.63
2022-09-30T04:56:27.998Z,48.68
2022-09-30T04:56:50.603Z,48.62
2022-09-30T04:57:13.968Z,48.78
2022-09-30T04:57:35.676Z,48.76
2022-09-30T04:57:57.284Z,48.73
2022-09-30T04:58:18.868Z,48.81
2022-09-30T04:58:43.883Z,48.91
2022-09-30T04:59:05.999Z,49.02
2022-09-30T04:59:29.220Z,48.89
2022-09-30T04:59:50.860Z,48.85
2022-09-30T05:00:14.039Z,49.04
2022-09-30T05:00:35.764Z,49.03
2022-09-30T05:01:01.734Z,48.94
2022-09-30T05:01:23.491Z,48.94
2022-09-30T05:01:46.133Z,48.94
2022-09-30T05:02:09.746Z,49.21
2022-09-30T05:02:32.011Z,49.08
2022-09-30T05:02:55.245Z,48.94
2022-09-30T05:03:19.851Z,48.88
2022-09-30T05:03:41.495Z,48.92
2022-09-30T05:04:03.612Z,49.13
2022-09-30T05:04:25.288Z,49.02
2022-09-30T05:04:46.866Z,48.96
2022-09-30T05:05:10.221Z,48.95
2022-09-30T05:05:33.564Z,48.89
2022-09-30T05:05:55.427Z,48.84
2022-09-30T05:06:17.517Z,48.75
2022-09-30T05:06:40.595Z,48.65
2022-09-30T05:07:06.399Z,48.69
2022-09-30T05:07:31.050Z,48.75
2022-09-30T05:07:52.621Z,48.81
2022-09-30T05:08:15.510Z,48.80
2022-09-30T05:08:41.754Z,48.97
2022-09-30T05:09:06.752Z,48.96
2022-09-30T05:09:28.385Z,49.10
2022-09-30T05:09:50.975Z,48.93
2022-09-30T05:10:12.799Z,48.86
2022-09-30T05:10:34.443Z,49.09
2022-09-30T05:10:57.204Z,48.95
2022-09-30T05:11:22.781Z,48.99
2022-09-30T05:11:44.396Z,48.97
2022-09-30T05:12:05.992Z,48.93
2022-09-30T05:12:27.562Z,49.10
2022-09-30T05:12:52.582Z,49.05
2022-09-30T05:13:15.873Z,49.11
2022-09-30T05:13:40.609Z,49.03
2022-09-30T05:14:08.776Z,49.09
2022-09-30T05:14:30.782Z,49.23
2022-09-30T05:14:53.732Z,49.01
2022-09-30T05:15:15.406Z,49.13
2022-09-30T05:15:37.217Z,49.21
2022-09-30T05:15:58.906Z,49.19
2022-09-30T05:16:21.990Z,49.13
2022-09-30T05:16:45.272Z,49.09
2022-09-30T05:17:08.625Z,49.23
2022-09-30T05:17:30.886Z,49.11
2022-09-30T05:17:54.887Z,49.07
2022-09-30T05:18:18.271Z,49.11
2022-09-30T05:18:46.046Z,49.16
2022-09-30T05:19:09.142Z,49.41
2022-09-30T05:19:31.806Z,49.35
2022-09-30T05:19:53.695Z,49.25
2022-09-30T05:20:18.928Z,49.20
2022-09-30T05:20:43.942Z,49.14
2022-09-30T05:21:07.303Z,49.09
2022-09-30T05:21:28.929Z,49.04
2022-09-30T05:21:51.968Z,48.90
2022-09-30T05:22:15.487Z,49.16
2022-09-30T05:22:38.262Z,49.13
2022-09-30T05:23:01.673Z,49.09
2022-09-30T05:23:24.199Z,49.03
2022-09-30T05:23:47.655Z,49.04
2022-09-30T05:24:11.240Z,49.24
2022-09-30T05:24:32.864Z,49.13
2022-09-30T05:24:56.096Z,48.87
2022-09-30T05:25:19.250Z,48.86
2022-09-30T05:25:40.785Z,48.86
2022-09-30T05:26:03.399Z,48.62
2022-09-30T05:26:24.977Z,48.63
2022-09-30T05:26:47.476Z,48.50
2022-09-30T05:27:09.155Z,48.62
2022-09-30T05:27:30.725Z,48.59
2022-09-30T05:27:52.353Z,48.85
2022-09-30T05:28:16.785Z,48.83
2022-09-30T05:28:38.376Z,48.78
2022-09-30T05:29:00.946Z,48.36
2022-09-30T05:29:22.645Z,48.19
2022-09-30T05:29:45.566Z,48.22
2022-09-30T05:30:09.102Z,47.98
2022-09-30T05:30:31.031Z,48.04
2022-09-30T05:30:56.718Z,48.13
2022-09-30T05:31:20.857Z,48.26
2022-09-30T05:31:43.046Z,48.44
2022-09-30T05:32:05.628Z,48.41
2022-09-30T05:32:30.122Z,48.46
2022-09-30T05:32:51.792Z,48.52
2022-09-30T05:33:14.096Z,48.39
2022-09-30T05:33:40.306Z,48.53
2022-09-30T05:34:04.332Z,48.42